createdAt,value
2023-02-21T00:02:59.374Z,96496.81
2023-02-21T00:08:19.610Z,96488.41
2023-02-21T00:13:39.715Z,96484.81
2023-02-21T00:19:02.264Z,96483.84
2023-02-21T00:24:22.822Z,96478.94
2023-02-21T00:29:42.822Z,96481.44
2023-02-21T00:35:05.398Z,96474.97
2023-02-21T00:40:27.568Z,96471.66
2023-02-21T00:45:47.576Z,96466.56
2023-02-21T00:51:10.196Z,96470.44
2023-02-21T00:56:30.224Z,96468.59
2023-02-21T01:01:50.255Z,96466.44
2023-02-21T01:07:12.849Z,96458.59
2023-02-21T01:12:32.829Z,96468.91
2023-02-21T01:17:52.824Z,96461.19
2023-02-21T01:23:15.406Z,96462.25
2023-02-21T01:28:35.473Z,96453.25
2023-02-21T01:33:56.666Z,96460.47
2023-02-21T01:39:19.073Z,96447.28
2023-02-21T01:44:49.895Z,96454.59
2023-02-21T01:50:09.931Z,96449.06
2023-02-21T01:55:32.827Z,96438.09
2023-02-21T02:00:53.670Z,96438.66
2023-02-21T02:06:16.223Z,96442.06
2023-02-21T02:11:58.329Z,96432.25
2023-02-21T02:17:16.735Z,96429.00
2023-02-21T02:22:46.228Z,96428.22
2023-02-21T02:28:08.187Z,96420.66
2023-02-21T02:34:03.298Z,96414.41
2023-02-21T02:39:23.117Z,96415.03
2023-02-21T02:44:37.809Z,96410.28
2023-02-21T02:49:48.032Z,96399.72
2023-02-21T02:55:07.674Z,96407.28
2023-02-21T03:00:18.725Z,96405.25
2023-02-21T03:05:41.942Z,96395.66
2023-02-21T03:11:01.269Z,96408.03
2023-02-21T03:16:16.390Z,96403.75
2023-02-21T03:21:27.621Z,96402.44
2023-02-21T03:26:42.970Z,96394.34
2023-02-21T03:31:57.785Z,96397.63
2023-02-21T03:37:05.711Z,96397.47
2023-02-21T03:42:15.873Z,96387.66
2023-02-21T03:47:23.686Z,96388.31
2023-02-21T03:52:31.179Z,96390.06
2023-02-21T03:57:41.329Z,96390.72
2023-02-21T04:02:48.826Z,96389.78
2023-02-21T04:07:56.360Z,96387.56
2023-02-21T04:13:07.410Z,96392.31
2023-02-21T04:18:14.958Z,96386.59
2023-02-21T04:23:23.801Z,96385.66
2023-02-21T04:28:33.884Z,96392.53
2023-02-21T04:33:41.426Z,96381.69
2023-02-21T04:38:50.486Z,96389.06
2023-02-21T04:44:00.697Z,96381.22
2023-02-21T04:49:08.301Z,96387.59
2023-02-21T04:54:15.830Z,96378.34
2023-02-21T04:59:25.917Z,96379.50
2023-02-21T05:04:33.508Z,96367.72
2023-02-21T05:09:41.039Z,96369.50
2023-02-21T05:14:51.173Z,96366.09
2023-02-21T05:19:58.700Z,96370.53
2023-02-21T05:25:06.379Z,96374.72
2023-02-21T05:30:19.368Z,96368.41
2023-02-21T05:35:26.957Z,96369.28
2023-02-21T05:40:34.505Z,96372.84
2023-02-21T05:45:44.911Z,96370.13
2023-02-21T05:50:52.452Z,96373.34
2023-02-21T05:56:00.639Z,96370.72
2023-02-21T06:01:11.144Z,96374.50
2023-02-21T06:06:18.868Z,96377.19
2023-02-21T06:11:28.203Z,96369.47
2023-02-21T06:16:39.879Z,96372.06
2023-02-21T06:21:47.750Z,96365.03
2023-02-21T06:26:55.242Z,96374.59
2023-02-21T06:32:05.445Z,96372.34
2023-02-21T06:37:13.209Z,96369.34
2023-02-21T06:42:22.872Z,96377.59
2023-02-21T06:47:33.106Z,96367.94
2023-02-21T06:52:40.622Z,96371.63
2023-02-21T06:57:48.114Z,96368.00
2023-02-21T07:02:58.261Z,96359.38
2023-02-21T07:08:05.913Z,96359.13
2023-02-21T07:13:13.686Z,96350.72
2023-02-21T07:18:23.814Z,96355.25
2023-02-21T07:23:31.453Z,96357.38
2023-02-21T07:28:39.080Z,96368.59
2023-02-21T07:33:49.257Z,96369.16
2023-02-21T07:38:56.785Z,96373.13
2023-02-21T07:44:04.289Z,96379.28
2023-02-21T07:49:14.379Z,96369.63
2023-02-21T07:54:23.317Z,96381.66
2023-02-21T07:59:31.272Z,96375.31
2023-02-21T08:04:42.187Z,96365.31
2023-02-21T08:09:50.494Z,96371.03
2023-02-21T08:14:58.034Z,96360.78
2023-02-21T08:20:09.032Z,96373.19
2023-02-21T08:25:18.305Z,96373.38
2023-02-21T08:30:26.372Z,96373.09
2023-02-21T08:35:36.600Z,96379.97
2023-02-21T08:40:44.259Z,96379.16
2023-02-21T08:45:51.760Z,96376.47
2023-02-21T08:51:02.099Z,96382.66
2023-02-21T08:56:11.326Z,96383.19
2023-02-21T09:01:19.213Z,96379.22
2023-02-21T09:06:30.384Z,96381.34
2023-02-21T09:11:37.694Z,96383.56
2023-02-21T09:16:47.749Z,96383.19
2023-02-21T09:22:00.800Z,96375.81
2023-02-21T09:27:09.494Z,96378.69
2023-02-21T09:32:17.465Z,96377.34
2023-02-21T09:37:27.688Z,96378.75
2023-02-21T09:42:36.518Z,96373.38
2023-02-21T09:47:45.310Z,96371.03
2023-02-21T09:52:55.500Z,96358.47
2023-02-21T09:58:04.332Z,96367.31
2023-02-21T10:03:31.630Z,96360.03
2023-02-21T10:08:51.394Z,96356.69
2023-02-21T10:14:08.893Z,96363.28
2023-02-21T10:19:22.098Z,96358.44
2023-02-21T10:24:38.611Z,96362.31
2023-02-21T10:29:51.109Z,96350.59
2023-02-21T10:35:00.365Z,96351.69
2023-02-21T10:40:33.749Z,96352.56
2023-02-21T10:45:47.637Z,96349.84
2023-02-21T10:51:09.260Z,96354.03
2023-02-21T10:56:23.419Z,96346.91
2023-02-21T11:01:39.813Z,96348.47
2023-02-21T11:06:49.343Z,96341.06
2023-02-21T11:12:07.852Z,96329.97
2023-02-21T11:17:19.507Z,96324.84
2023-02-21T11:22:37.981Z,96321.63
2023-02-21T11:28:00.552Z,96321.44
2023-02-21T11:33:09.387Z,96304.94
2023-02-21T11:38:36.308Z,96293.09
2023-02-21T11:43:49.160Z,96287.88
2023-02-21T11:49:04.234Z,96281.22
2023-02-21T11:54:12.334Z,96276.78
2023-02-21T11:59:32.363Z,96262.50
2023-02-21T12:04:58.806Z,96249.69
2023-02-21T12:10:31.302Z,96235.66
2023-02-21T12:15:51.130Z,96230.09
2023-02-21T12:21:16.155Z,96225.97
2023-02-21T12:26:46.581Z,96217.34
2023-02-21T12:32:24.553Z,96206.03
2023-02-21T12:37:38.708Z,96194.66
2023-02-21T12:43:06.141Z,96189.41
2023-02-21T12:48:27.814Z,96178.88
2023-02-21T12:53:38.720Z,96168.44
2023-02-21T12:58:52.715Z,96169.19
2023-02-21T13:04:16.614Z,96157.47
2023-02-21T13:09:32.185Z,96141.91
2023-02-21T13:14:45.308Z,96135.13
2023-02-21T13:20:02.000Z,96116.94
2023-02-21T13:25:23.293Z,96115.06
2023-02-21T13:30:44.410Z,96111.69
2023-02-21T13:35:54.925Z,96096.91
2023-02-21T13:41:10.421Z,96082.88
2023-02-21T13:46:46.408Z,96072.66
2023-02-21T13:51:57.552Z,96070.38
2023-02-21T13:57:06.864Z,96065.47
2023-02-21T14:02:30.792Z,96063.66
2023-02-21T14:08:00.625Z,96057.59
2023-02-21T14:13:19.625Z,96054.97
2023-02-21T14:18:29.615Z,96048.50
2023-02-21T14:23:45.582Z,96037.50
2023-02-21T14:29:05.434Z,96043.97
2023-02-21T14:34:15.260Z,96024.97
2023-02-21T14:39:26.657Z,96020.41
2023-02-21T14:44:42.683Z,96023.09
2023-02-21T14:50:21.854Z,96015.91
2023-02-21T14:55:46.761Z,96009.44
2023-02-21T15:01:06.670Z,96003.38
2023-02-21T15:06:18.449Z,95994.25
2023-02-21T15:11:36.503Z,95996.59
2023-02-21T15:16:47.630Z,95996.56
2023-02-21T15:22:16.511Z,95991.28
2023-02-21T15:27:26.689Z,95989.00
2023-02-21T15:32:34.266Z,95987.88
2023-02-21T15:37:43.993Z,95985.59
2023-02-21T15:42:55.897Z,95975.69
2023-02-21T15:48:04.589Z,95970.38
2023-02-21T15:53:17.494Z,95970.00
2023-02-21T15:58:29.751Z,95971.16
2023-02-21T16:03:40.703Z,95966.59
2023-02-21T16:08:59.100Z,95968.47
2023-02-21T16:14:16.505Z,95963.13
2023-02-21T16:19:26.992Z,95967.66
2023-02-21T16:24:35.577Z,95955.47
2023-02-21T16:29:45.741Z,95958.09
2023-02-21T16:34:55.242Z,95961.47
2023-02-21T16:40:03.124Z,95957.19
2023-02-21T16:45:13.518Z,95962.41
2023-02-21T16:50:24.562Z,95957.72
2023-02-21T16:55:32.434Z,95960.25
2023-02-21T17:00:42.524Z,95958.97
2023-02-21T17:05:50.488Z,95966.03
2023-02-21T17:10:58.637Z,95965.94
2023-02-21T17:16:09.943Z,95964.38
2023-02-21T17:21:17.828Z,95968.88
2023-02-21T17:26:25.593Z,95972.16
2023-02-21T17:31:35.959Z,95974.47
2023-02-21T17:36:43.719Z,95979.94
2023-02-21T17:41:52.739Z,95984.94
2023-02-21T17:47:02.923Z,95978.22
2023-02-21T17:52:11.758Z,95993.16
2023-02-21T17:57:19.573Z,95992.91
2023-02-21T18:02:30.272Z,95997.34
2023-02-21T18:07:37.947Z,95997.78
2023-02-21T18:12:45.790Z,95994.94
2023-02-21T18:17:56.248Z,95998.56
2023-02-21T18:23:06.565Z,95994.69
2023-02-21T18:28:14.084Z,96002.28
2023-02-21T18:33:27.172Z,95992.34
2023-02-21T18:38:35.087Z,95997.50
2023-02-21T18:43:44.103Z,95994.19
2023-02-21T18:48:54.292Z,95988.19
2023-02-21T18:54:01.748Z,95989.13
2023-02-21T18:59:10.847Z,95991.34
2023-02-21T19:04:21.069Z,95984.56
2023-02-21T19:09:28.528Z,95991.06
2023-02-21T19:14:36.992Z,95988.09
2023-02-21T19:19:47.008Z,95984.59
2023-02-21T19:24:54.509Z,95986.47
2023-02-21T19:30:02.306Z,95988.78
